Time;durP1;ratioP1;P1;durP2;ratioP2;P2;SDS_P1;SDS_P2;PMS_P1;PMS_P2;Temp;Humidity;BMP_temperature;BMP_pressure;BME280_temperature;BME280_humidity;BME280_pressure;Samples;Min_cycle;Max_cycle;Signal;HPM_P1;HPM_P2
2023/02/02 00:01:48;;;;;;;19.90;9.20;;;;;;;0.05;69.91;100685.10;107609;1251;99150;-59
2023/02/02 00:04:20;;;;;;;19.40;9.40;;;;;;;0.01;69.63;100681.60;107952;1252;113642;-59
2023/02/02 00:06:49;;;;;;;14.90;8.10;;;;;;;0.04;68.93;100685.48;107713;1253;110090;-60
2023/02/02 00:09:18;;;;;;;13.80;7.70;;;;;;;0.12;68.13;100678.07;107770;1253;107673;-60
2023/02/02 00:11:49;;;;;;;16.00;7.90;;;;;;;0.21;67.86;100672.01;107733;1253;99236;-60
2023/02/02 00:14:18;;;;;;;15.50;8.00;;;;;;;0.31;67.41;100677.52;107701;1248;99059;-60
2023/02/02 00:16:48;;;;;;;16.60;7.70;;;;;;;0.41;66.57;100674.59;107881;1252;113133;-60
2023/02/02 00:19:25;;;;;;;15.10;7.50;;;;;;;0.52;66.57;100669.66;107908;1248;109946;-61
2023/02/02 00:21:54;;;;;;;14.00;6.90;;;;;;;0.60;66.30;100673.69;107893;1250;107413;-62
2023/02/02 00:24:23;;;;;;;15.50;6.20;;;;;;;0.67;66.22;100657.82;107717;1251;99142;-59
2023/02/02 00:26:55;;;;;;;10.60;6.20;;;;;;;0.73;65.82;100657.37;107635;1251;99064;-59
2023/02/02 00:29:26;;;;;;;12.10;6.30;;;;;;;0.80;65.74;100654.89;107619;1249;113701;-60
2023/02/02 00:31:55;;;;;;;13.80;7.20;;;;;;;0.85;65.61;100648.83;107710;1252;109501;-60
2023/02/02 00:34:24;;;;;;;15.00;7.10;;;;;;;0.89;65.36;100644.36;107547;1252;108263;-59
2023/02/02 00:36:52;;;;;;;15.90;7.20;;;;;;;0.96;65.54;100640.88;107657;1251;99268;-59
2023/02/02 00:39:24;;;;;;;14.00;7.00;;;;;;;1.00;65.21;100635.02;107909;1252;99173;-59
2023/02/02 00:41:53;;;;;;;15.00;7.10;;;;;;;1.03;65.17;100635.38;107913;1252;112842;-60
2023/02/02 00:47:09;;;;;;;12.50;6.70;;;;;;;1.10;65.50;100624.95;107844;1252;108110;-59
2023/02/02 00:49:38;;;;;;;15.30;7.20;;;;;;;1.12;65.60;100619.55;107818;1250;99239;-60
2023/02/02 00:52:06;;;;;;;15.40;8.00;;;;;;;1.14;65.43;100612.98;107729;1249;99852;-60
2023/02/02 00:54:35;;;;;;;14.00;7.20;;;;;;;1.15;65.08;100614.30;107606;1254;114357;-60
2023/02/02 00:57:03;;;;;;;12.80;6.90;;;;;;;1.17;65.20;100613.10;107850;1252;110335;-59
2023/02/02 00:59:31;;;;;;;12.80;6.40;;;;;;;1.22;65.63;100612.71;107898;1251;109508;-59
2023/02/02 01:02:00;;;;;;;10.50;5.60;;;;;;;1.26;65.68;100605.77;107577;1251;99172;-59
2023/02/02 01:04:30;;;;;;;11.50;5.70;;;;;;;1.31;66.05;100602.52;107874;1251;99061;-62
2023/02/02 01:06:59;;;;;;;11.00;4.80;;;;;;;1.35;66.07;100599.14;107732;1251;113123;-60
2023/02/02 01:09:27;;;;;;;10.50;4.70;;;;;;;1.39;66.10;100598.58;107577;1251;109839;-59
2023/02/02 01:11:56;;;;;;;12.10;5.90;;;;;;;1.41;66.07;100596.50;107622;1251;108307;-59
2023/02/02 01:14:26;;;;;;;10.10;4.90;;;;;;;1.45;66.24;100594.90;107768;1253;99287;-59
2023/02/02 01:16:56;;;;;;;10.50;4.80;;;;;;;1.47;66.18;100589.81;107885;1250;99252;-59
2023/02/02 01:19:26;;;;;;;10.30;5.40;;;;;;;1.51;66.16;100590.14;107891;1253;114356;-59
2023/02/02 01:21:54;;;;;;;16.30;5.50;;;;;;;1.54;66.33;100592.09;107601;1249;109057;-61
2023/02/02 01:24:24;;;;;;;8.30;4.60;;;;;;;1.59;66.16;100588.16;107849;1249;108775;-60
2023/02/02 01:26:52;;;;;;;8.30;4.40;;;;;;;1.62;65.07;100584.29;107661;1251;99814;-60
2023/02/02 01:29:21;;;;;;;17.70;7.70;;;;;;;1.66;64.41;100583.73;107583;1253;99054;-61
2023/02/02 01:31:49;;;;;;;18.20;9.10;;;;;;;1.65;65.02;100582.02;107603;1252;113759;-59
2023/02/02 01:34:18;;;;;;;15.20;9.70;;;;;;;1.59;65.32;100578.97;107729;1251;109141;-59
2023/02/02 01:36:46;;;;;;;17.40;9.80;;;;;;;1.51;65.88;100579.39;107726;1251;107347;-60
2023/02/02 01:39:15;;;;;;;13.90;8.80;;;;;;;1.44;66.17;100577.61;107700;1248;99198;-59
2023/02/02 01:41:44;;;;;;;19.40;9.50;;;;;;;1.38;66.07;100574.75;107938;1248;99740;-60
2023/02/02 01:44:50;;;;;;;8.40;3.90;;;;;;;1.30;65.76;100581.36;107650;1251;113239;-58
2023/02/02 01:47:23;;;;;;;11.90;4.00;;;;;;;1.29;65.51;100574.69;107692;1251;109606;-60
2023/02/02 01:49:54;;;;;;;15.80;9.20;;;;;;;1.31;65.54;100573.88;107603;1253;108037;-59
2023/02/02 01:52:26;;;;;;;18.90;11.20;;;;;;;1.29;65.77;100570.98;107704;1251;99441;-59
2023/02/02 01:54:59;;;;;;;17.90;10.70;;;;;;;1.19;65.92;100568.65;107667;1251;99282;-60
2023/02/02 01:57:46;;;;;;;18.50;9.70;;;;;;;1.04;66.04;100574.96;107661;1250;113844;-59
2023/02/02 02:00:16;;;;;;;19.80;9.80;;;;;;;0.91;66.28;100576.51;107859;1253;109707;-59
2023/02/02 02:02:48;;;;;;;20.90;8.50;;;;;;;0.79;66.22;100578.14;107893;1247;108273;-59
2023/02/02 02:05:24;;;;;;;14.20;8.20;;;;;;;0.70;66.53;100580.70;107944;1248;99885;-60
2023/02/02 02:08:00;;;;;;;20.50;8.90;;;;;;;0.61;66.98;100576.54;107742;1251;99218;-59
2023/02/02 02:10:29;;;;;;;14.70;8.40;;;;;;;0.56;66.93;100577.70;107767;1247;113611;-60
2023/02/02 02:12:58;;;;;;;13.90;7.30;;;;;;;0.52;67.09;100577.23;107907;1251;109957;-60
2023/02/02 02:18:37;;;;;;;16.60;8.30;;;;;;;0.43;67.39;100573.77;107692;1251;99166;-59
2023/02/02 02:28:04;;;;;;;18.80;7.40;;;;;;;0.25;67.96;100575.00;107684;1247;109814;-61
2023/02/02 02:30:58;;;;;;;13.60;7.90;;;;;;;0.20;68.23;100575.61;107641;1251;108745;-59
2023/02/02 02:33:40;;;;;;;11.70;6.10;;;;;;;0.11;68.40;100581.83;107705;1250;99193;-61
2023/02/02 02:36:20;;;;;;;11.40;6.50;;;;;;;0.05;68.51;100585.10;107620;1253;99070;-59
2023/02/02 02:39:15;;;;;;;11.00;7.00;;;;;;;0.07;68.55;100587.34;107580;1253;113628;-59
2023/02/02 02:41:49;;;;;;;12.50;7.30;;;;;;;0.07;68.70;100584.69;107734;1250;110324;-61
2023/02/02 02:44:20;;;;;;;15.20;7.00;;;;;;;0.06;68.83;100585.96;107894;1251;107970;-59
2023/02/02 02:46:50;;;;;;;15.30;7.90;;;;;;;0.07;69.31;100588.75;107668;1251;99290;-60
2023/02/02 02:49:18;;;;;;;17.90;6.80;;;;;;;0.08;69.47;100588.17;107881;1252;99262;-58
2023/02/02 02:51:49;;;;;;;11.30;6.90;;;;;;;0.10;69.69;100590.89;107895;1248;113187;-59
2023/02/02 02:54:41;;;;;;;11.80;7.30;;;;;;;0.14;70.02;100595.64;107864;1251;109810;-60
2023/02/02 02:57:31;;;;;;;13.40;6.10;;;;;;;0.20;70.16;100593.41;107604;1249;109649;-59
2023/02/02 03:00:26;;;;;;;8.70;5.70;;;;;;;0.27;70.48;100591.11;107866;1252;99200;-60
2023/02/02 03:02:57;;;;;;;10.50;6.10;;;;;;;0.37;70.72;100593.63;107615;1251;99213;-60
2023/02/02 03:05:30;;;;;;;13.50;6.60;;;;;;;0.44;70.57;100592.77;107656;1251;113743;-61
2023/02/02 03:08:21;;;;;;;13.10;6.50;;;;;;;0.53;70.87;100594.27;107917;1251;110868;-60
2023/02/02 03:10:51;;;;;;;10.00;6.30;;;;;;;0.65;70.86;100598.66;107875;1250;108186;-60
2023/02/02 03:13:19;;;;;;;11.10;6.00;;;;;;;0.73;70.98;100597.70;107668;1251;99165;-60
2023/02/02 03:15:48;;;;;;;10.30;5.50;;;;;;;0.79;70.78;100600.40;107607;1248;99167;-58
2023/02/02 03:18:20;;;;;;;12.80;5.90;;;;;;;0.85;70.45;100596.93;107945;1247;114412;-60
2023/02/02 03:20:48;;;;;;;12.30;6.20;;;;;;;0.89;70.55;100591.23;107888;1251;109767;-60
2023/02/02 03:23:17;;;;;;;10.40;5.80;;;;;;;0.91;70.42;100596.08;107724;1253;109035;-60
2023/02/02 03:25:46;;;;;;;11.90;5.20;;;;;;;0.91;70.24;100594.68;107682;1251;99188;-60
2023/02/02 03:28:16;;;;;;;7.30;4.20;;;;;;;0.87;69.51;100588.31;107677;1251;99710;-59
2023/02/02 03:30:47;;;;;;;8.50;4.60;;;;;;;0.86;68.69;100588.90;107690;1251;111781;-61
2023/02/02 03:33:17;;;;;;;8.10;4.50;;;;;;;0.87;67.60;100585.90;107632;1250;110046;-59
2023/02/02 03:35:46;;;;;;;6.20;4.50;;;;;;;0.89;67.37;100582.27;107741;1251;108729;-59
2023/02/02 03:38:14;;;;;;;8.70;4.10;;;;;;;0.89;67.35;100580.63;107739;1251;99202;-60
2023/02/02 03:40:43;;;;;;;6.80;3.70;;;;;;;0.89;67.05;100582.79;107664;1250;99140;-61
2023/02/02 03:43:12;;;;;;;8.60;4.40;;;;;;;0.90;66.42;100575.98;107679;1249;112710;-60
2023/02/02 03:45:41;;;;;;;8.60;4.00;;;;;;;0.92;66.62;100575.55;107903;1247;109872;-62
2023/02/02 03:48:09;;;;;;;14.50;4.20;;;;;;;0.93;66.62;100580.10;107677;1248;108136;-60
2023/02/02 03:50:37;;;;;;;9.20;5.30;;;;;;;0.91;66.47;100576.64;107925;1247;99083;-60
2023/02/02 03:53:05;;;;;;;9.50;4.20;;;;;;;0.91;66.32;100576.31;107772;1251;99742;-59
2023/02/02 03:55:34;;;;;;;9.10;4.30;;;;;;;0.94;65.56;100573.16;107674;1251;112459;-60
2023/02/02 03:58:02;;;;;;;6.30;3.90;;;;;;;0.98;65.59;100573.13;107641;1247;109709;-59
2023/02/02 04:00:31;;;;;;;9.40;3.40;;;;;;;1.03;65.32;100575.00;107836;1248;108614;-60
2023/02/02 04:02:59;;;;;;;6.70;4.40;;;;;;;1.09;64.57;100573.98;107880;1248;99348;-60
2023/02/02 04:05:28;;;;;;;9.20;5.20;;;;;;;1.11;65.06;100577.95;107907;1248;99106;-59
2023/02/02 04:07:56;;;;;;;9.30;4.50;;;;;;;1.07;65.37;100583.98;107952;1247;113042;-59
2023/02/02 04:10:25;;;;;;;13.00;4.60;;;;;;;0.99;65.78;100579.62;107910;1248;110211;-60
2023/02/02 04:12:53;;;;;;;9.50;5.00;;;;;;;0.92;66.10;100580.13;107699;1250;108094;-59
2023/02/02 04:15:22;;;;;;;9.30;5.10;;;;;;;0.85;66.35;100578.52;107653;1247;99183;-60
2023/02/02 04:17:51;;;;;;;9.00;5.00;;;;;;;0.82;66.38;100581.36;107918;1248;99226;-59
2023/02/02 04:20:19;;;;;;;10.70;5.00;;;;;;;0.83;66.19;100576.90;107899;1250;112956;-60
2023/02/02 04:22:47;;;;;;;6.60;4.10;;;;;;;0.89;65.67;100576.58;107696;1251;109354;-60
2023/02/02 04:25:16;;;;;;;10.30;5.20;;;;;;;0.98;65.74;100568.36;107694;1247;108343;-59
2023/02/02 04:27:44;;;;;;;8.60;4.50;;;;;;;1.09;65.19;100570.98;107694;1248;99821;-60
2023/02/02 04:30:13;;;;;;;7.30;4.00;;;;;;;1.19;65.02;100573.98;107946;1247;99194;-60
2023/02/02 04:32:41;;;;;;;6.80;4.20;;;;;;;1.28;64.55;100581.45;107773;1251;112636;-62
2023/02/02 04:35:09;;;;;;;11.90;4.40;;;;;;;1.38;64.49;100585.72;107666;1251;110232;-60
2023/02/02 04:37:37;;;;;;;9.60;3.70;;;;;;;1.46;64.82;100586.19;107845;1253;108039;-60
2023/02/02 04:40:07;;;;;;;10.90;4.50;;;;;;;1.55;64.92;100589.77;107847;1253;99218;-60
2023/02/02 04:42:35;;;;;;;8.00;4.60;;;;;;;1.62;64.50;100596.30;107854;1247;100893;-60
2023/02/02 04:45:04;;;;;;;11.60;4.10;;;;;;;1.67;64.80;100603.42;107914;1251;112658;-59
2023/02/02 04:47:33;;;;;;;11.40;4.70;;;;;;;1.71;64.36;100600.36;107958;1247;109756;-59
2023/02/02 04:50:02;;;;;;;9.10;4.10;;;;;;;1.78;64.32;100600.05;107820;1251;108115;-60
2023/02/02 04:52:30;;;;;;;12.60;5.60;;;;;;;1.82;64.67;100597.14;107748;1247;99867;-59
2023/02/02 04:54:58;;;;;;;12.70;4.70;;;;;;;1.87;64.99;100591.19;107893;1248;99226;-60
2023/02/02 04:57:27;;;;;;;10.60;5.10;;;;;;;1.87;64.62;100592.61;107604;1250;114054;-60
2023/02/02 04:59:55;;;;;;;11.60;5.80;;;;;;;1.82;64.87;100594.68;107598;1250;109976;-59
2023/02/02 05:02:23;;;;;;;10.50;6.10;;;;;;;1.77;65.07;100588.56;107907;1248;108280;-60
2023/02/02 05:04:52;;;;;;;11.60;5.70;;;;;;;1.73;65.16;100590.92;107856;1251;99189;-60
2023/02/02 05:07:20;;;;;;;10.70;5.60;;;;;;;1.69;64.84;100603.67;107971;1251;99067;-60
2023/02/02 05:09:48;;;;;;;10.60;6.10;;;;;;;1.62;64.92;100601.58;107775;1249;114007;-60
2023/02/02 05:12:16;;;;;;;14.30;5.70;;;;;;;1.58;65.01;100595.27;107630;1250;109792;-60
2023/02/02 05:14:45;;;;;;;12.60;5.90;;;;;;;1.54;64.90;100597.91;107661;1248;109021;-59
2023/02/02 05:17:14;;;;;;;9.60;6.30;;;;;;;1.50;65.13;100595.83;107814;1252;99197;-60
2023/02/02 05:19:42;;;;;;;20.30;7.20;;;;;;;1.45;65.30;100595.58;107700;1250;99179;-60
2023/02/02 05:22:10;;;;;;;22.40;8.60;;;;;;;1.41;65.36;100591.95;107752;1251;113197;-60
2023/02/02 05:24:39;;;;;;;14.20;7.10;;;;;;;1.39;65.52;100588.48;107860;1247;109527;-60
2023/02/02 05:27:07;;;;;;;24.10;12.00;;;;;;;1.37;65.86;100592.11;107894;1252;108265;-60
2023/02/02 05:29:36;;;;;;;17.40;10.40;;;;;;;1.33;65.75;100592.70;107904;1247;99197;-60
2023/02/02 05:32:05;;;;;;;17.00;7.20;;;;;;;1.28;65.70;100592.40;107919;1248;99265;-60
2023/02/02 05:34:33;;;;;;;12.80;7.10;;;;;;;1.24;65.65;100594.73;107890;1248;113531;-60
2023/02/02 05:37:02;;;;;;;18.50;10.40;;;;;;;1.20;66.02;100595.14;107895;1248;108870;-60
2023/02/02 05:39:30;;;;;;;16.50;10.10;;;;;;;1.15;66.00;100599.81;107741;1251;107524;-61
2023/02/02 05:41:58;;;;;;;16.30;7.60;;;;;;;1.08;66.08;100601.58;107635;1251;99074;-61
2023/02/02 05:44:27;;;;;;;12.70;7.30;;;;;;;1.02;66.04;100599.08;107700;1250;99136;-59
2023/02/02 05:46:55;;;;;;;11.80;6.20;;;;;;;0.93;66.29;100599.85;107618;1250;113345;-60
2023/02/02 05:49:24;;;;;;;9.10;5.60;;;;;;;0.85;66.41;100592.52;107713;1250;109832;-60
2023/02/02 05:51:56;;;;;;;8.20;6.10;;;;;;;0.75;66.36;100593.18;107616;1250;108392;-59
2023/02/02 05:54:24;;;;;;;16.30;6.90;;;;;;;0.65;66.64;100590.69;107659;1250;99173;-59
2023/02/02 05:56:54;;;;;;;15.50;7.90;;;;;;;0.56;66.99;100595.52;107721;1250;99064;-59
2023/02/02 05:59:24;;;;;;;20.80;10.20;;;;;;;0.50;67.13;100599.36;107751;1250;112761;-59
2023/02/02 06:01:53;;;;;;;16.00;7.70;;;;;;;0.43;67.42;100604.09;107641;1251;109896;-60
2023/02/02 06:04:21;;;;;;;19.20;8.50;;;;;;;0.37;67.37;100600.90;107625;1251;108788;-58
2023/02/02 06:06:50;;;;;;;18.70;9.70;;;;;;;0.30;67.50;100601.19;107649;1250;99195;-62
2023/02/02 06:09:18;;;;;;;22.40;10.00;;;;;;;0.25;67.63;100600.89;107634;1250;99285;-60
2023/02/02 06:11:47;;;;;;;23.90;11.60;;;;;;;0.21;67.70;100608.52;107643;1250;112550;-60
2023/02/02 06:14:15;;;;;;;31.90;12.20;;;;;;;0.18;67.78;100610.63;107718;1250;109684;-59
2023/02/02 06:16:44;;;;;;;20.10;11.40;;;;;;;0.13;67.84;100614.52;107664;1251;108146;-60
2023/02/02 06:19:12;;;;;;;19.50;11.30;;;;;;;0.10;67.89;100617.86;107622;1250;99205;-59
2023/02/02 06:21:41;;;;;;;21.10;11.30;;;;;;;0.05;67.94;100621.26;107637;1250;99762;-59
2023/02/02 06:24:09;;;;;;;28.10;12.50;;;;;;;0.06;68.05;100618.77;107662;1250;112744;-60
2023/02/02 06:26:37;;;;;;;24.70;12.80;;;;;;;0.09;68.19;100620.02;107745;1250;109240;-61
2023/02/02 06:29:06;;;;;;;21.50;11.70;;;;;;;0.15;68.42;100617.42;107648;1250;109254;-59
2023/02/02 06:31:35;;;;;;;33.30;14.40;;;;;;;0.30;68.89;100617.44;107571;1250;99230;-59
2023/02/02 06:34:03;;;;;;;23.60;13.90;;;;;;;0.49;69.13;100610.17;107675;1253;99249;-60
2023/02/02 06:36:32;;;;;;;28.30;15.80;;;;;;;0.65;69.29;100609.91;107644;1251;113204;-58
2023/02/02 06:39:03;;;;;;;26.70;15.00;;;;;;;0.78;69.32;100613.16;107656;1251;110802;-60
2023/02/02 06:41:31;;;;;;;26.90;14.30;;;;;;;0.89;69.39;100612.10;107598;1249;108220;-60
2023/02/02 06:44:00;;;;;;;25.10;14.60;;;;;;;1.01;69.33;100612.90;107639;1250;99265;-60
2023/02/02 06:46:28;;;;;;;28.30;13.40;;;;;;;1.10;69.40;100615.77;107688;1250;99100;-60
2023/02/02 06:48:57;;;;;;;24.70;12.90;;;;;;;1.17;69.18;100616.65;107723;1250;113382;-58
2023/02/02 06:51:25;;;;;;;24.00;13.40;;;;;;;1.23;69.24;100617.79;107694;1250;109943;-59
2023/02/02 06:53:54;;;;;;;24.30;13.70;;;;;;;1.32;69.00;100616.23;107643;1251;108432;-60
2023/02/02 06:56:26;;;;;;;29.80;14.50;;;;;;;1.41;69.02;100614.20;107699;1249;99250;-60
2023/02/02 06:58:54;;;;;;;32.90;14.80;;;;;;;1.47;68.57;100612.47;107640;1250;99125;-58
2023/02/02 07:01:24;;;;;;;88.80;19.50;;;;;;;1.47;68.09;100615.46;107708;1250;111829;-59
2023/02/02 07:03:52;;;;;;;41.90;17.90;;;;;;;1.47;67.91;100616.55;107679;1250;109698;-60
2023/02/02 07:06:23;;;;;;;38.30;18.90;;;;;;;1.47;67.72;100616.84;107691;1250;108167;-61
2023/02/02 07:08:53;;;;;;;33.70;16.70;;;;;;;1.46;67.47;100612.52;107671;1251;99180;-59
2023/02/02 07:11:31;;;;;;;35.60;17.90;;;;;;;1.45;67.36;100615.03;107655;1250;99624;-59
2023/02/02 07:14:04;;;;;;;47.60;22.00;;;;;;;1.46;67.29;100611.30;107682;1251;113621;-59
2023/02/02 07:16:32;;;;;;;42.80;20.40;;;;;;;1.49;67.38;100615.52;107673;1249;109861;-59
2023/02/02 07:19:01;;;;;;;55.40;21.20;;;;;;;1.55;67.49;100614.52;107684;1250;108285;-59
2023/02/02 07:21:34;;;;;;;36.60;17.90;;;;;;;1.62;67.50;100614.52;107620;1250;99166;-60
2023/02/02 07:24:04;;;;;;;;;;;;;;;1.69;67.36;100612.15;107673;1249;99278;-59
2023/02/02 07:26:34;;;;;;;54.70;25.00;;;;;;;1.77;67.30;100607.14;107669;1253;112037;-59
2023/02/02 07:29:04;;;;;;;51.40;23.60;;;;;;;1.86;67.32;100606.98;107700;1250;109802;-58
2023/02/02 07:31:32;;;;;;;43.70;20.30;;;;;;;1.97;67.15;100604.29;107702;1250;108808;-58
2023/02/02 07:34:04;;;;;;;41.60;19.90;;;;;;;2.09;67.27;100602.39;107617;1253;99298;-61
2023/02/02 07:36:32;;;;;;;49.60;21.40;;;;;;;2.21;66.91;100600.64;107626;1250;99729;-60
2023/02/02 07:39:03;;;;;;;37.90;18.40;;;;;;;2.36;66.62;100604.08;107590;1251;112388;-60
2023/02/02 07:41:34;;;;;;;35.10;14.80;;;;;;;2.50;66.66;100607.70;107681;1250;109776;-60
2023/02/02 07:44:04;;;;;;;28.60;13.60;;;;;;;2.62;66.55;100602.56;107670;1251;108570;-58
2023/02/02 07:46:32;;;;;;;24.90;13.60;;;;;;;2.74;66.42;100600.83;107653;1250;99157;-59
2023/02/02 07:49:02;;;;;;;26.80;13.30;;;;;;;2.84;66.05;100600.59;107708;1250;99150;-59
2023/02/02 07:51:31;;;;;;;25.10;12.70;;;;;;;2.89;65.82;100601.89;107644;1249;111586;-61
2023/02/02 07:53:59;;;;;;;22.50;12.70;;;;;;;2.91;65.63;100596.48;107611;1250;109863;-59
2023/02/02 07:56:27;;;;;;;29.70;12.50;;;;;;;2.94;65.32;100602.48;107577;1250;109309;-61
2023/02/02 07:58:56;;;;;;;31.40;14.30;;;;;;;3.00;65.01;100598.23;107622;1251;99161;-59
2023/02/02 08:01:26;;;;;;;33.10;15.20;;;;;;;3.08;64.86;100591.91;107687;1250;99166;-60
2023/02/02 08:03:57;;;;;;;29.30;14.90;;;;;;;3.17;64.79;100592.24;107694;1250;112453;-60
2023/02/02 08:06:30;;;;;;;37.40;17.20;;;;;;;3.27;64.73;100592.20;107689;1250;109887;-60
2023/02/02 08:09:00;;;;;;;39.40;18.20;;;;;;;3.40;64.42;100594.45;107657;1250;107737;-61
2023/02/02 08:11:29;;;;;;;32.40;16.80;;;;;;;3.53;64.57;100593.43;107634;1253;99164;-61
2023/02/02 08:13:59;;;;;;;33.00;14.80;;;;;;;3.68;64.00;100582.94;107671;1250;99890;-61
2023/02/02 08:16:29;;;;;;;21.50;12.90;;;;;;;3.79;63.97;100583.14;107689;1250;112954;-59
2023/02/02 08:18:59;;;;;;;27.10;12.60;;;;;;;3.86;64.14;100586.80;107749;1256;110339;-58
2023/02/02 08:21:27;;;;;;;24.20;12.20;;;;;;;3.89;64.21;100594.70;107667;1249;108722;-59
2023/02/02 08:23:56;;;;;;;20.60;12.80;;;;;;;3.99;64.19;100593.59;107699;1250;99278;-59
2023/02/02 08:26:26;;;;;;;23.00;14.80;;;;;;;4.17;64.47;100593.51;107675;1250;99141;-60
2023/02/02 08:29:00;;;;;;;28.50;15.00;;;;;;;4.39;64.44;100590.16;107703;1250;113491;-60
2023/02/02 08:31:31;;;;;;;32.20;16.40;;;;;;;4.61;63.95;100589.77;107702;1250;110113;-58
2023/02/02 08:34:00;;;;;;;28.00;15.10;;;;;;;4.84;63.40;100590.00;107608;1251;108194;-59
2023/02/02 08:36:30;;;;;;;28.00;14.30;;;;;;;5.10;63.44;100588.13;107671;1250;99195;-60
2023/02/02 08:39:11;;;;;;;26.80;12.70;;;;;;;5.36;63.05;100582.94;107711;1249;99263;-61
2023/02/02 08:41:39;;;;;;;19.80;12.90;;;;;;;5.60;62.55;100584.98;107644;1250;113459;-60
2023/02/02 08:44:10;;;;;;;24.60;13.30;;;;;;;5.74;61.96;100582.07;107598;1253;109939;-59
2023/02/02 08:46:39;;;;;;;21.00;12.70;;;;;;;5.84;62.01;100585.40;107632;1250;108742;-60
2023/02/02 08:49:10;;;;;;;26.20;13.00;;;;;;;5.96;61.63;100589.59;107674;1249;99067;-59
2023/02/02 08:51:40;;;;;;;27.00;12.90;;;;;;;6.05;61.48;100591.63;107693;1250;99220;-59
2023/02/02 08:54:08;;;;;;;24.80;12.70;;;;;;;6.14;61.05;100586.55;107672;1250;113645;-60
2023/02/02 08:56:37;;;;;;;27.80;13.30;;;;;;;6.20;60.56;100585.53;107668;1249;109314;-59
2023/02/02 08:59:06;;;;;;;26.90;14.50;;;;;;;6.21;59.78;100588.12;107658;1251;108742;-59
2023/02/02 09:01:35;;;;;;;30.60;13.80;;;;;;;6.18;59.99;100587.48;107611;1253;99268;-60
2023/02/02 09:04:12;;;;;;;31.20;12.90;;;;;;;6.19;60.31;100588.48;107759;1251;99064;-60
2023/02/02 09:06:41;;;;;;;25.60;12.70;;;;;;;6.22;59.60;100590.20;107662;1250;113255;-60
2023/02/02 09:09:13;;;;;;;27.70;12.40;;;;;;;6.30;59.57;100589.99;107607;1249;110010;-60
2023/02/02 09:11:43;;;;;;;27.00;12.90;;;;;;;6.37;58.94;100586.41;107666;1251;108210;-60
2023/02/02 09:14:12;;;;;;;27.40;13.20;;;;;;;6.36;58.77;100581.54;107660;1250;99173;-60
2023/02/02 09:16:41;;;;;;;22.90;13.80;;;;;;;6.38;58.66;100581.42;107696;1249;99063;-60
2023/02/02 09:19:10;;;;;;;22.20;13.10;;;;;;;6.28;58.29;100575.57;107682;1253;113592;-59
2023/02/02 09:21:39;;;;;;;21.80;12.70;;;;;;;6.17;58.49;100582.05;107645;1253;109647;-60
2023/02/02 09:24:12;;;;;;;24.60;13.70;;;;;;;6.12;59.33;100585.57;107880;1248;108504;-61
2023/02/02 09:26:42;;;;;;;28.50;14.90;;;;;;;6.19;59.79;100581.86;107816;1250;99256;-60
2023/02/02 09:29:13;;;;;;;28.40;14.40;;;;;;;6.32;59.97;100579.20;107701;1250;99151;-60
2023/02/02 09:31:42;;;;;;;32.60;15.20;;;;;;;6.53;59.79;100574.73;107749;1250;113717;-59
2023/02/02 09:34:13;;;;;;;24.20;15.40;;;;;;;7.10;59.17;100567.40;107688;1251;109093;-59
2023/02/02 09:36:42;;;;;;;26.50;13.50;;;;;;;7.95;58.18;100561.82;107681;1250;109097;-60
2023/02/02 09:39:12;;;;;;;26.10;11.70;;;;;;;8.60;57.58;100555.48;107683;1249;99195;-59
2023/02/02 09:41:40;;;;;;;23.50;12.00;;;;;;;8.84;56.28;100552.92;107715;1251;99070;-59
2023/02/02 09:44:31;;;;;;;21.60;11.30;;;;;;;8.80;56.52;100549.19;107596;1250;112929;-61
2023/02/02 09:47:17;;;;;;;26.00;11.60;;;;;;;8.78;56.32;100545.96;107615;1250;109563;-60
2023/02/02 09:50:12;;;;;;;30.90;10.70;;;;;;;8.79;56.20;100545.50;107690;1250;109274;-60
2023/02/02 09:52:45;;;;;;;29.00;12.90;;;;;;;8.65;54.63;100541.97;107663;1250;99185;-58
2023/02/02 09:55:22;;;;;;;26.70;12.80;;;;;;;8.41;54.92;100537.91;107620;1250;99189;-60
2023/02/02 09:57:56;;;;;;;23.90;12.40;;;;;;;8.34;55.42;100534.94;107641;1250;113086;-60
2023/02/02 10:00:35;;;;;;;27.00;13.10;;;;;;;8.49;55.93;100537.23;107692;1250;110164;-61
2023/02/02 10:03:14;;;;;;;26.30;13.70;;;;;;;8.85;55.65;100536.02;107623;1251;108250;-62
2023/02/02 10:05:55;;;;;;;23.70;12.60;;;;;;;9.04;55.41;100537.83;107598;1250;99084;-59
2023/02/02 10:08:37;;;;;;;27.10;12.50;;;;;;;9.17;54.31;100536.04;107630;1250;99065;-59
2023/02/02 10:11:29;;;;;;;26.80;13.70;;;;;;;8.98;54.54;100537.11;107651;1249;113471;-62
2023/02/02 10:14:10;;;;;;;22.50;14.20;;;;;;;8.77;54.37;100538.27;107691;1250;110173;-61
2023/02/02 10:16:40;;;;;;;23.60;14.00;;;;;;;8.68;54.41;100538.76;107572;1250;108113;-59
2023/02/02 10:19:12;;;;;;;26.80;14.20;;;;;;;8.63;54.67;100539.17;107622;1250;99070;-60
2023/02/02 10:22:03;;;;;;;15.10;9.60;;;;;;;8.57;54.66;100540.56;107604;1250;99278;-59
2023/02/02 10:24:34;;;;;;;17.70;9.00;;;;;;;8.77;53.21;100531.92;107683;1250;113495;-60
2023/02/02 10:27:08;;;;;;;14.90;9.30;;;;;;;9.04;53.06;100534.80;107640;1251;108880;-65
2023/02/02 10:30:33;;;;;;;22.80;9.40;;;;;;;9.27;52.73;100532.08;107626;1250;107730;-60
2023/02/02 10:33:05;;;;;;;21.10;10.30;;;;;;;9.50;51.81;100528.20;107584;1251;99232;-59
2023/02/02 10:35:51;;;;;;;16.60;10.10;;;;;;;9.80;52.11;100529.30;107565;1250;99153;-61
2023/02/02 10:38:38;;;;;;;8.20;4.50;;;;;;;10.17;50.71;100525.08;107635;1251;112664;-60
2023/02/02 10:41:32;;;;;;;16.60;9.30;;;;;;;10.71;50.57;100515.87;107622;1250;109605;-62
2023/02/02 10:44:12;;;;;;;19.30;8.30;;;;;;;11.43;49.79;100512.35;106951;1250;802389;-61
2023/02/02 10:46:52;;;;;;;10.00;5.50;;;;;;;12.38;47.86;100504.73;107551;1250;99179;-61
2023/02/02 10:49:33;;;;;;;7.10;3.60;;;;;;;12.91;43.05;100511.20;107617;1250;99858;-60
2023/02/02 10:52:10;;;;;;;16.20;8.70;;;;;;;13.94;43.27;100503.59;107533;1250;113254;-60
2023/02/02 10:55:03;;;;;;;17.80;9.20;;;;;;;14.87;43.83;100506.70;107550;1250;109702;-60
2023/02/02 10:57:31;;;;;;;16.30;8.80;;;;;;;15.97;43.93;100500.30;107617;1250;108649;-60
2023/02/02 11:00:50;;;;;;;18.80;10.30;;;;;;;16.75;40.35;100497.45;107583;1250;99346;-60
2023/02/02 11:03:22;;;;;;;5.20;3.40;;;;;;;17.32;34.77;100497.64;107683;1251;99213;-60
2023/02/02 11:08:44;;;;;;;7.60;3.30;;;;;;;15.90;32.50;100499.77;107594;1254;109974;-60
2023/02/02 11:11:32;;;;;;;8.00;3.90;;;;;;;15.18;32.66;100506.73;107565;1250;108371;-60
2023/02/02 11:14:09;;;;;;;7.60;3.10;;;;;;;14.75;32.66;100503.13;107688;1250;99191;-60
2023/02/02 11:16:39;;;;;;;14.40;3.50;;;;;;;14.14;33.91;100505.52;107607;1250;99581;-60
2023/02/02 11:19:18;;;;;;;12.80;3.80;;;;;;;13.49;34.33;100503.85;107539;1250;114698;-59
2023/02/02 11:21:52;;;;;;;8.30;3.70;;;;;;;12.98;34.92;100502.39;107570;1250;109850;-60
2023/02/02 11:24:30;;;;;;;11.10;4.90;;;;;;;12.53;35.75;100505.17;107561;1251;108167;-59
2023/02/02 11:27:00;;;;;;;24.60;5.30;;;;;;;12.20;36.55;100500.23;107620;1250;99176;-60
2023/02/02 11:29:38;;;;;;;9.60;4.80;;;;;;;11.96;37.29;100502.75;107599;1250;99823;-60
2023/02/02 11:32:34;;;;;;;10.70;3.90;;;;;;;11.78;36.34;100501.70;107721;1250;113135;-59
2023/02/02 11:35:03;;;;;;;8.20;3.90;;;;;;;11.41;36.79;100506.01;107563;1254;109268;-59
2023/02/02 11:37:34;;;;;;;6.40;3.90;;;;;;;11.11;37.03;100504.20;107591;1250;108101;-61
2023/02/02 11:40:22;;;;;;;11.30;4.70;;;;;;;10.82;37.04;100502.65;107626;1251;99355;-59
2023/02/02 11:42:54;;;;;;;10.00;5.10;;;;;;;10.55;38.12;100503.56;107622;1250;99254;-60
2023/02/02 11:45:44;;;;;;;14.60;4.70;;;;;;;10.40;39.07;100503.81;107532;1250;113644;-61
2023/02/02 11:48:21;;;;;;;13.20;4.20;;;;;;;10.30;38.75;100501.81;107546;1251;109679;-60